Terminal Aerodrome Forecast
Issued by NWS Twin Cities, MN

Home | Current Version | Previous Version | Text Only | Print | Product List | Glossary Off
Versions: 1 2 3 4 5 6 7 8 9 10 11 12

000
FTUS43 KMPX 160520
TAFSTC
TAF
KSTC 160520Z 1606/1706 34010KT P6SM BKN015 BKN040
     FM161600 31006KT P6SM SCT015
     FM170000 23006KT P6SM SCT100=

USA.gov is the U.S. government's official web portal to all federal, state and local government web resources and services.